createdAt,value
2022-11-25T00:01:36.145Z,2.30
2022-11-25T00:04:05.769Z,0.98
2022-11-25T00:06:35.814Z,2.05
2022-11-25T00:09:13.900Z,1.58
2022-11-25T00:11:47.203Z,2.53
2022-11-25T00:14:18.324Z,1.73
2022-11-25T00:16:50.461Z,1.85
2022-11-25T00:19:19.165Z,1.65
2022-11-25T00:21:47.766Z,2.28
2022-11-25T00:24:20.629Z,1.92
2022-11-25T00:26:50.414Z,1.63
2022-11-25T00:29:21.721Z,3.25
2022-11-25T00:31:50.477Z,2.40
2022-11-25T00:34:25.150Z,1.98
2022-11-25T00:36:58.329Z,2.40
2022-11-25T00:39:40.309Z,1.75
2022-11-25T00:42:35.172Z,2.90
2022-11-25T00:45:07.823Z,2.35
2022-11-25T00:47:45.326Z,2.80
2022-11-25T00:50:13.877Z,1.67
2022-11-25T00:52:44.006Z,2.95
2022-11-25T00:55:15.778Z,2.22
2022-11-25T00:57:54.108Z,2.20
2022-11-25T01:00:23.009Z,1.52
2022-11-25T01:03:11.970Z,1.85
2022-11-25T01:05:45.195Z,1.88
2022-11-25T01:08:15.567Z,2.53
2022-11-25T01:10:44.433Z,3.05
2022-11-25T01:13:15.803Z,2.85
2022-11-25T01:15:46.457Z,2.42
2022-11-25T01:18:17.379Z,1.58
2022-11-25T01:20:48.285Z,2.42
2022-11-25T01:23:17.627Z,1.90
2022-11-25T01:25:46.365Z,2.10
2022-11-25T01:28:15.241Z,2.83
2022-11-25T01:30:59.623Z,2.22
2022-11-25T01:33:48.523Z,1.73
2022-11-25T01:36:35.323Z,3.22
2022-11-25T01:39:31.665Z,3.20
2022-11-25T01:42:01.475Z,2.95
2022-11-25T01:44:33.583Z,2.30
2022-11-25T01:47:04.410Z,2.25
2022-11-25T01:49:45.512Z,1.92
2022-11-25T01:52:32.666Z,2.78
2022-11-25T01:55:03.225Z,2.10
2022-11-25T01:57:38.720Z,2.17
2022-11-25T02:00:21.808Z,3.55
2022-11-25T02:03:11.757Z,2.88
2022-11-25T02:05:59.919Z,2.05
2022-11-25T02:08:43.094Z,2.03
2022-11-25T02:11:15.658Z,2.08
2022-11-25T02:13:45.781Z,2.50
2022-11-25T02:16:14.546Z,2.17
2022-11-25T02:18:43.057Z,1.67
2022-11-25T02:21:11.814Z,1.80
2022-11-25T02:23:40.950Z,1.80
2022-11-25T02:26:14.395Z,1.83
2022-11-25T02:28:48.708Z,2.53
2022-11-25T02:31:25.422Z,2.50
2022-11-25T02:33:54.252Z,1.67
2022-11-25T02:36:25.189Z,2.40
2022-11-25T02:39:01.631Z,2.47
2022-11-25T02:41:37.864Z,2.22
2022-11-25T02:44:08.293Z,3.08
2022-11-25T02:46:45.009Z,2.42
2022-11-25T02:49:21.181Z,2.13
2022-11-25T02:51:56.550Z,2.58
2022-11-25T02:54:27.852Z,2.92
2022-11-25T02:56:58.873Z,2.38
2022-11-25T02:59:28.203Z,2.42
2022-11-25T03:01:59.343Z,2.80
2022-11-25T03:04:29.996Z,3.17
2022-11-25T03:06:58.803Z,2.25
2022-11-25T03:09:27.390Z,2.03
2022-11-25T03:12:14.974Z,1.92
2022-11-25T03:15:01.828Z,2.15
2022-11-25T03:17:45.832Z,3.05
2022-11-25T03:20:31.019Z,2.92
2022-11-25T03:23:15.818Z,2.83
2022-11-25T03:25:44.363Z,2.00
2022-11-25T03:28:14.050Z,2.63
2022-11-25T03:30:44.987Z,2.33
2022-11-25T03:33:26.776Z,2.08
2022-11-25T03:35:56.918Z,1.80
2022-11-25T03:38:43.724Z,2.83
2022-11-25T03:41:16.604Z,2.03
2022-11-25T03:43:57.936Z,2.45
2022-11-25T03:46:45.666Z,2.45
2022-11-25T03:49:24.890Z,2.28
2022-11-25T03:51:55.746Z,2.80
2022-11-25T03:54:26.553Z,1.83
2022-11-25T03:57:54.954Z,1.75
2022-11-25T04:00:31.030Z,2.30
2022-11-25T04:03:21.105Z,2.50
2022-11-25T04:05:50.271Z,3.90
2022-11-25T04:08:29.459Z,2.53
2022-11-25T04:11:08.642Z,3.58
2022-11-25T04:13:51.850Z,2.63
2022-11-25T04:16:27.555Z,3.65
2022-11-25T04:18:58.145Z,2.50
2022-11-25T04:21:44.981Z,2.67
2022-11-25T04:24:24.940Z,2.40
2022-11-25T04:27:08.596Z,2.20
2022-11-25T04:29:37.823Z,2.13
2022-11-25T04:32:11.224Z,3.80
2022-11-25T04:34:41.119Z,2.58
2022-11-25T04:37:10.457Z,2.88
2022-11-25T04:39:56.851Z,2.65
2022-11-25T04:42:34.424Z,3.50
2022-11-25T04:45:23.580Z,3.67
2022-11-25T04:48:09.814Z,3.47
2022-11-25T04:50:58.181Z,2.90
2022-11-25T04:53:46.650Z,3.28
2022-11-25T04:56:22.597Z,3.13
2022-11-25T04:59:26.801Z,2.72
2022-11-25T05:01:56.711Z,3.25
2022-11-25T05:04:36.562Z,4.00
2022-11-25T05:07:08.256Z,3.63
2022-11-25T05:09:37.381Z,2.90
2022-11-25T05:12:24.597Z,4.60
2022-11-25T05:17:46.129Z,3.45
2022-11-25T05:20:16.174Z,3.20
2022-11-25T05:22:48.828Z,3.92
2022-11-25T05:25:27.124Z,3.90
2022-11-25T05:28:40.814Z,3.55
2022-11-25T05:31:23.993Z,3.77
2022-11-25T05:33:52.666Z,3.03
2022-11-25T05:36:22.977Z,3.95
2022-11-25T05:38:53.835Z,3.83
2022-11-25T05:41:35.095Z,2.90
2022-11-25T05:44:05.310Z,4.60
2022-11-25T05:46:36.225Z,3.28
2022-11-25T05:49:06.042Z,3.45
2022-11-25T05:51:34.871Z,3.55
2022-11-25T05:54:21.263Z,4.35
2022-11-25T05:57:04.342Z,4.30
2022-11-25T05:59:54.580Z,3.35
2022-11-25T06:02:53.572Z,3.40
2022-11-25T06:05:23.994Z,2.83
2022-11-25T06:08:09.206Z,3.78
2022-11-25T06:10:50.599Z,5.03
2022-11-25T06:13:31.320Z,3.67
2022-11-25T06:16:06.306Z,3.30
2022-11-25T06:18:41.333Z,4.53
2022-11-25T06:21:11.686Z,5.03
2022-11-25T06:23:40.447Z,4.28
2022-11-25T06:26:16.395Z,5.38
2022-11-25T06:28:45.161Z,4.28
2022-11-25T06:31:20.278Z,5.20
2022-11-25T06:34:09.258Z,5.25
2022-11-25T06:36:50.999Z,5.97
2022-11-25T06:39:23.712Z,4.25
2022-11-25T06:42:02.863Z,4.57
2022-11-25T06:44:38.918Z,4.47
2022-11-25T06:47:21.197Z,4.15
2022-11-25T06:49:50.497Z,4.75
2022-11-25T06:52:19.029Z,4.07
2022-11-25T06:54:49.945Z,5.53
2022-11-25T06:57:20.041Z,4.35
2022-11-25T06:59:52.360Z,5.30
2022-11-25T07:02:24.884Z,3.63
2022-11-25T07:04:53.814Z,4.90
2022-11-25T07:07:25.333Z,4.53
2022-11-25T07:09:57.626Z,5.43
2022-11-25T07:12:40.083Z,5.60
2022-11-25T07:15:26.960Z,4.88
2022-11-25T07:18:15.010Z,5.65
2022-11-25T07:21:05.033Z,3.40
2022-11-25T07:23:53.311Z,8.25
2022-11-25T07:26:36.276Z,6.55
2022-11-25T07:29:23.523Z,5.88
2022-11-25T07:32:12.776Z,5.00
2022-11-25T07:34:53.195Z,6.03
2022-11-25T07:37:39.664Z,4.65
2022-11-25T07:40:10.426Z,6.03
2022-11-25T07:42:44.051Z,3.83
2022-11-25T07:45:14.582Z,4.75
2022-11-25T07:47:49.134Z,4.85
2022-11-25T07:50:31.693Z,4.28
2022-11-25T07:53:04.579Z,4.75
2022-11-25T07:55:37.734Z,4.85
2022-11-25T07:58:06.401Z,4.95
2022-11-25T08:00:35.475Z,4.78
2022-11-25T08:03:23.936Z,5.15
2022-11-25T08:06:13.297Z,4.50
2022-11-25T08:08:55.718Z,5.45
2022-11-25T08:11:26.124Z,4.90
2022-11-25T08:13:55.609Z,4.68
2022-11-25T08:16:25.097Z,3.90
2022-11-25T08:18:55.167Z,4.45
2022-11-25T08:21:26.536Z,5.53
2022-11-25T08:24:05.640Z,5.10
2022-11-25T08:26:38.344Z,4.90
2022-11-25T08:29:09.400Z,5.05
2022-11-25T08:31:50.190Z,4.65
2022-11-25T08:34:33.531Z,4.97
2022-11-25T08:37:20.049Z,4.70
2022-11-25T08:39:58.282Z,5.53
2022-11-25T08:42:35.787Z,4.40
2022-11-25T08:45:13.772Z,4.68
2022-11-25T08:48:01.419Z,5.35
2022-11-25T08:50:48.447Z,4.10
2022-11-25T08:53:20.781Z,4.65
2022-11-25T08:55:50.413Z,4.10
2022-11-25T08:58:22.130Z,4.35
2022-11-25T09:00:50.841Z,5.25
2022-11-25T09:03:34.424Z,3.95
2022-11-25T09:06:03.014Z,6.00
2022-11-25T09:08:33.705Z,8.82
2022-11-25T09:11:02.514Z,6.75
2022-11-25T09:13:33.416Z,4.65
2022-11-25T09:18:45.793Z,4.30
2022-11-25T09:21:16.465Z,5.30
2022-11-25T09:23:55.027Z,6.07
2022-11-25T09:26:42.252Z,5.32
2022-11-25T09:29:25.253Z,4.75
2022-11-25T09:32:04.571Z,4.35
2022-11-25T09:34:34.496Z,4.05
2022-11-25T09:37:03.583Z,4.35
2022-11-25T09:39:35.680Z,4.63
2022-11-25T09:42:25.511Z,4.15
2022-11-25T09:45:25.482Z,4.18
2022-11-25T09:48:14.232Z,3.65
2022-11-25T09:50:44.760Z,5.28
2022-11-25T09:53:12.972Z,3.78
2022-11-25T09:55:47.777Z,3.63
2022-11-25T09:58:21.987Z,3.60
2022-11-25T10:00:51.225Z,3.55
2022-11-25T10:03:29.300Z,5.40
2022-11-25T10:06:04.442Z,4.05
2022-11-25T10:08:51.584Z,4.18
2022-11-25T10:11:43.474Z,4.28
2022-11-25T10:14:11.913Z,6.00
2022-11-25T10:16:57.680Z,3.58
2022-11-25T10:19:48.111Z,4.82
2022-11-25T10:22:19.967Z,4.80
2022-11-25T10:24:52.413Z,3.60
2022-11-25T10:27:48.060Z,3.75
2022-11-25T10:30:33.854Z,3.90
2022-11-25T10:33:21.837Z,3.65
2022-11-25T10:36:13.051Z,4.82
2022-11-25T10:39:00.233Z,7.47
2022-11-25T10:41:46.524Z,9.07
2022-11-25T10:44:20.471Z,8.00
2022-11-25T10:47:18.813Z,4.93
2022-11-25T10:49:56.672Z,3.33
2022-11-25T10:52:39.845Z,2.78
2022-11-25T10:55:16.364Z,3.40
2022-11-25T10:58:21.267Z,3.80
2022-11-25T11:01:04.881Z,3.13
2022-11-25T11:06:31.750Z,3.25
2022-11-25T11:09:05.030Z,3.28
2022-11-25T11:11:48.881Z,3.53
2022-11-25T11:14:22.917Z,3.30
2022-11-25T11:17:00.891Z,2.90
2022-11-25T11:19:39.412Z,2.70
2022-11-25T11:22:43.778Z,3.78
2022-11-25T11:25:21.552Z,7.13
2022-11-25T11:27:51.276Z,3.92
2022-11-25T11:30:33.361Z,2.88
2022-11-25T11:33:34.466Z,3.83
2022-11-25T11:36:15.690Z,2.80
2022-11-25T11:38:54.545Z,3.58
2022-11-25T11:41:22.830Z,2.88
2022-11-25T11:44:09.980Z,3.00
2022-11-25T11:46:38.294Z,3.00
2022-11-25T11:49:06.558Z,3.17
2022-11-25T11:51:53.821Z,3.15
2022-11-25T11:54:22.612Z,2.22
2022-11-25T11:56:59.041Z,2.47
2022-11-25T11:59:28.478Z,2.92
2022-11-25T12:02:02.824Z,3.60
2022-11-25T12:04:34.893Z,6.25
2022-11-25T12:07:21.459Z,4.07
2022-11-25T12:10:02.068Z,3.15
2022-11-25T12:12:52.017Z,2.95
2022-11-25T12:15:27.175Z,3.00
2022-11-25T12:18:13.449Z,2.83
2022-11-25T12:21:03.348Z,2.40
2022-11-25T12:23:59.440Z,3.75
2022-11-25T12:26:46.183Z,2.90
2022-11-25T12:29:17.708Z,3.20
2022-11-25T12:31:57.464Z,3.22
2022-11-25T12:34:40.998Z,3.38
2022-11-25T12:37:15.301Z,3.00
2022-11-25T12:39:49.797Z,3.22
2022-11-25T12:42:21.863Z,3.47
2022-11-25T12:44:58.462Z,2.55
2022-11-25T12:47:27.093Z,2.08
2022-11-25T12:50:01.758Z,2.08
2022-11-25T12:52:48.846Z,1.90
2022-11-25T12:55:19.738Z,2.50
2022-11-25T12:57:57.692Z,2.28
2022-11-25T13:00:44.478Z,2.10
2022-11-25T13:03:15.740Z,2.30
2022-11-25T13:05:55.848Z,2.30
2022-11-25T13:08:42.353Z,3.22
2022-11-25T13:11:19.589Z,2.30
2022-11-25T13:13:50.473Z,2.88
2022-11-25T13:16:20.699Z,2.55
2022-11-25T13:18:49.627Z,2.72
2022-11-25T13:21:18.916Z,2.30
2022-11-25T13:23:52.202Z,2.50
2022-11-25T13:26:43.373Z,2.35
2022-11-25T13:29:15.876Z,2.20
2022-11-25T13:32:01.255Z,2.05
2022-11-25T13:34:29.927Z,2.90
2022-11-25T13:36:59.690Z,3.50
2022-11-25T13:39:32.203Z,4.22
2022-11-25T13:42:19.576Z,2.63
2022-11-25T13:44:53.733Z,7.72
2022-11-25T13:47:41.212Z,3.35
2022-11-25T13:50:12.289Z,2.72
2022-11-25T13:55:32.265Z,2.97
2022-11-25T13:58:21.003Z,2.30
2022-11-25T14:00:59.497Z,2.55
2022-11-25T14:03:33.819Z,3.85
2022-11-25T14:06:27.465Z,3.10
2022-11-25T14:08:57.605Z,1.60
2022-11-25T14:11:44.263Z,2.10
2022-11-25T14:14:46.494Z,2.50
2022-11-25T14:17:36.529Z,1.95
2022-11-25T14:20:24.446Z,1.88
2022-11-25T14:22:57.559Z,2.58
2022-11-25T14:25:30.318Z,1.67
2022-11-25T14:28:09.087Z,1.63
2022-11-25T14:30:51.868Z,2.00
2022-11-25T14:33:49.837Z,5.82
2022-11-25T14:36:26.410Z,2.17
2022-11-25T14:39:12.072Z,1.65
2022-11-25T14:44:21.565Z,1.85
2022-11-25T14:46:59.798Z,2.72
2022-11-25T14:50:18.950Z,1.30
2022-11-25T14:53:06.110Z,2.63
2022-11-25T14:55:34.750Z,2.10
2022-11-25T14:58:19.652Z,2.53
2022-11-25T15:01:05.137Z,2.40
2022-11-25T15:03:52.563Z,8.95
2022-11-25T15:06:42.591Z,3.60
2022-11-25T15:09:23.308Z,3.20
2022-11-25T15:12:02.728Z,3.20
2022-11-25T15:14:38.804Z,2.72
2022-11-25T15:17:08.662Z,3.45
2022-11-25T15:19:38.518Z,2.30
2022-11-25T15:22:28.225Z,2.80
2022-11-25T15:25:06.962Z,1.67
2022-11-25T15:27:47.732Z,1.60
2022-11-25T15:30:23.793Z,2.33
2022-11-25T15:33:14.351Z,1.92
2022-11-25T15:35:43.357Z,2.28
2022-11-25T15:38:41.021Z,1.98
2022-11-25T15:41:23.062Z,2.05
2022-11-25T15:43:53.437Z,3.22
2022-11-25T15:46:26.483Z,1.92
2022-11-25T15:49:04.009Z,1.98
2022-11-25T15:51:41.589Z,2.53
2022-11-25T15:54:15.943Z,1.77
2022-11-25T15:56:47.601Z,2.00
2022-11-25T15:59:35.283Z,1.85
2022-11-25T16:02:04.369Z,2.72
2022-11-25T16:04:33.362Z,2.10
2022-11-25T16:07:02.532Z,1.90
2022-11-25T16:09:34.000Z,8.65
2022-11-25T16:12:10.182Z,4.30
2022-11-25T16:14:38.711Z,1.92
2022-11-25T16:17:11.066Z,1.92
2022-11-25T16:19:42.126Z,1.77
2022-11-25T16:22:13.787Z,2.20
2022-11-25T16:24:55.969Z,2.38
2022-11-25T16:27:29.274Z,1.92
2022-11-25T16:30:06.233Z,2.25
2022-11-25T16:32:53.880Z,2.15
2022-11-25T16:35:29.624Z,4.20
2022-11-25T16:38:06.238Z,2.08
2022-11-25T16:40:37.791Z,1.88
2022-11-25T16:43:16.944Z,2.28
2022-11-25T16:45:49.505Z,1.80
2022-11-25T16:48:22.581Z,2.90
2022-11-25T16:50:53.856Z,2.30
2022-11-25T16:53:32.736Z,2.35
2022-11-25T16:56:05.270Z,2.53
2022-11-25T16:58:51.625Z,2.20
2022-11-25T17:01:34.523Z,2.72
2022-11-25T17:04:15.486Z,2.53
2022-11-25T17:07:16.510Z,2.45
2022-11-25T17:09:50.108Z,2.55
2022-11-25T17:12:31.745Z,2.40
2022-11-25T17:15:17.780Z,3.70
2022-11-25T17:18:05.381Z,2.17
2022-11-25T17:20:50.536Z,2.08
2022-11-25T17:23:31.685Z,2.90
2022-11-25T17:26:20.549Z,2.60
2022-11-25T17:29:09.827Z,3.45
2022-11-25T17:31:53.721Z,6.95
2022-11-25T17:34:27.571Z,2.78
2022-11-25T17:36:59.549Z,3.92
2022-11-25T17:39:33.619Z,4.45
2022-11-25T17:42:04.606Z,3.92
2022-11-25T17:44:39.975Z,4.82
2022-11-25T17:47:14.980Z,3.95
2022-11-25T17:49:45.813Z,4.27
2022-11-25T17:52:14.278Z,3.50
2022-11-25T17:54:43.379Z,4.28
2022-11-25T17:57:16.998Z,2.67
2022-11-25T17:59:45.502Z,3.00
2022-11-25T18:02:18.364Z,5.53
2022-11-25T18:05:03.322Z,3.40
2022-11-25T18:07:51.601Z,3.03
2022-11-25T18:13:07.677Z,3.42
2022-11-25T18:15:42.038Z,3.83
2022-11-25T18:18:29.736Z,3.88
2022-11-25T18:21:10.285Z,4.10
2022-11-25T18:23:49.903Z,3.25
2022-11-25T18:26:31.155Z,3.72
2022-11-25T18:29:20.225Z,3.30
2022-11-25T18:31:56.586Z,2.60
2022-11-25T18:34:41.100Z,6.95
2022-11-25T18:37:13.075Z,5.28
2022-11-25T18:40:01.765Z,5.97
2022-11-25T18:42:51.534Z,5.50
2022-11-25T18:45:39.573Z,8.25
2022-11-25T18:48:25.202Z,5.03
2022-11-25T18:51:12.513Z,3.92
2022-11-25T18:53:51.252Z,6.68
2022-11-25T18:56:34.716Z,3.00
2022-11-25T18:59:05.680Z,2.38
2022-11-25T19:01:35.368Z,3.55
2022-11-25T19:04:06.800Z,3.30
2022-11-25T19:06:35.868Z,2.97
2022-11-25T19:09:05.094Z,2.65
2022-11-25T19:11:53.546Z,4.75
2022-11-25T19:14:37.126Z,4.50
2022-11-25T19:17:24.310Z,5.80
2022-11-25T19:19:53.155Z,5.50
2022-11-25T19:22:24.710Z,5.50
2022-11-25T19:24:53.960Z,5.82
2022-11-25T19:27:24.473Z,4.28
2022-11-25T19:29:54.295Z,3.78
2022-11-25T19:32:25.681Z,3.00
2022-11-25T19:37:30.106Z,4.18
2022-11-25T19:39:58.663Z,6.93
2022-11-25T19:42:31.789Z,6.50
2022-11-25T19:45:08.156Z,8.85
2022-11-25T19:47:55.776Z,11.65
2022-11-25T19:50:43.896Z,16.30
2022-11-25T19:53:20.140Z,22.40
2022-11-25T19:58:19.215Z,10.77
2022-11-25T20:00:51.074Z,7.53
2022-11-25T20:03:32.218Z,9.75
2022-11-25T20:06:05.629Z,10.65
2022-11-25T20:08:36.560Z,9.02
2022-11-25T20:11:05.043Z,9.65
2022-11-25T20:13:34.563Z,9.80
2022-11-25T20:16:05.774Z,9.57
2022-11-25T20:18:35.747Z,8.18
2022-11-25T20:21:06.693Z,6.90
2022-11-25T20:23:46.480Z,7.75
2022-11-25T20:26:28.214Z,6.80
2022-11-25T20:29:18.981Z,10.68
2022-11-25T20:31:56.373Z,8.25
2022-11-25T20:34:28.407Z,6.97
2022-11-25T20:37:23.377Z,6.55
2022-11-25T20:40:14.352Z,7.30
2022-11-25T20:43:00.715Z,7.35
2022-11-25T20:45:35.513Z,7.38
2022-11-25T20:48:17.417Z,8.40
2022-11-25T20:50:55.721Z,9.60
2022-11-25T20:53:30.343Z,9.25
2022-11-25T20:56:00.196Z,8.82
2022-11-25T20:58:30.429Z,8.93
2022-11-25T21:01:01.868Z,8.55
2022-11-25T21:03:40.972Z,8.93
2022-11-25T21:06:21.122Z,12.57
2022-11-25T21:08:59.386Z,14.35
2022-11-25T21:11:36.389Z,12.65
2022-11-25T21:14:18.916Z,11.88
2022-11-25T21:16:51.197Z,9.93
2022-11-25T21:19:23.360Z,10.90
2022-11-25T21:21:52.780Z,8.40
2022-11-25T21:24:41.809Z,8.63
2022-11-25T21:29:55.845Z,9.07
2022-11-25T21:32:27.368Z,8.40
2022-11-25T21:35:08.463Z,8.52
2022-11-25T21:37:56.149Z,9.27
2022-11-25T21:40:27.960Z,8.80
2022-11-25T21:42:56.701Z,10.50
2022-11-25T21:45:28.436Z,13.63
2022-11-25T21:48:23.523Z,20.85
2022-11-25T21:50:58.688Z,17.92
2022-11-25T21:53:37.750Z,14.98
2022-11-25T21:56:23.338Z,17.05
2022-11-25T21:58:53.019Z,16.63
2022-11-25T22:01:28.695Z,18.40
2022-11-25T22:04:13.720Z,15.27
2022-11-25T22:09:22.219Z,11.68
2022-11-25T22:11:52.987Z,12.77
2022-11-25T22:14:34.016Z,11.10
2022-11-25T22:17:05.141Z,9.60
2022-11-25T22:19:48.018Z,8.40
2022-11-25T22:22:26.817Z,7.03
2022-11-25T22:25:01.975Z,7.55
2022-11-25T22:27:47.206Z,7.63
2022-11-25T22:30:21.165Z,8.20
2022-11-25T22:33:10.812Z,7.07
2022-11-25T22:35:43.399Z,7.60
2022-11-25T22:38:14.694Z,8.75
2022-11-25T22:40:55.659Z,7.38
2022-11-25T22:43:46.578Z,7.90
2022-11-25T22:46:21.608Z,7.60
2022-11-25T22:49:02.880Z,7.85
2022-11-25T22:51:31.895Z,7.93
2022-11-25T22:54:03.468Z,8.82
2022-11-25T22:56:32.395Z,7.97
2022-11-25T22:59:01.351Z,9.40
2022-11-25T23:01:30.878Z,9.98
2022-11-25T23:04:03.049Z,9.40
2022-11-25T23:06:45.084Z,8.32
2022-11-25T23:09:35.019Z,10.15
2022-11-25T23:12:18.657Z,8.40
2022-11-25T23:14:48.320Z,8.95
2022-11-25T23:17:27.163Z,9.07
2022-11-25T23:20:19.910Z,9.38
2022-11-25T23:23:11.567Z,9.65
2022-11-25T23:25:56.790Z,9.80
2022-11-25T23:28:44.452Z,8.88
2022-11-25T23:31:34.157Z,8.50
2022-11-25T23:34:23.704Z,8.40
2022-11-25T23:36:57.231Z,10.43
2022-11-25T23:39:27.451Z,8.63
2022-11-25T23:41:56.537Z,7.65
2022-11-25T23:44:31.617Z,8.38
2022-11-25T23:47:02.127Z,9.50
2022-11-25T23:49:35.001Z,8.05
2022-11-25T23:52:07.750Z,10.00
2022-11-25T23:54:41.185Z,7.93
2022-11-25T23:57:13.903Z,9.30
2022-11-25T23:59:43.213Z,9.30
